Time;durP1;ratioP1;P1;durP2;ratioP2;P2;SDS_P1;SDS_P2;PMS_P1;PMS_P2;Temp;Humidity;BMP_temperature;BMP_pressure;BME280_temperature;BME280_humidity;BME280_pressure;Samples;Min_cycle;Max_cycle;Signal;HPM_P1;HPM_P2
2022/11/15 00:01:25;;;;;;;3.95;3.20;;;;;;;;;;4944125;28;20559;-80
2022/11/15 00:03:51;;;;;;;4.82;3.53;;;;;;;;;;4960445;28;20374;-81
2022/11/15 00:06:17;;;;;;;4.70;3.45;;;;;;;;;;4928942;28;20030;-81
2022/11/15 00:08:42;;;;;;;4.57;3.58;;;;;;;;;;4944356;28;20046;-81
2022/11/15 00:11:09;;;;;;;4.50;3.20;;;;;;;;;;4925765;28;20436;-81
2022/11/15 00:13:34;;;;;;;5.55;3.60;;;;;;;;;;4941066;28;20480;-81
2022/11/15 00:16:00;;;;;;;3.85;2.97;;;;;;;;;;4944226;28;20042;-80
2022/11/15 00:18:26;;;;;;;3.95;3.00;;;;;;;;;;4928706;28;20207;-80
2022/11/15 00:20:51;;;;;;;12.15;3.85;;;;;;;;;;4944589;28;20378;-80
2022/11/15 00:23:17;;;;;;;4.00;3.13;;;;;;;;;;4928508;28;20022;-80
2022/11/15 00:25:42;;;;;;;4.38;3.30;;;;;;;;;;4943982;28;20056;-81
2022/11/15 00:28:07;;;;;;;4.00;3.22;;;;;;;;;;4959916;28;20042;-80
2022/11/15 00:30:34;;;;;;;4.38;3.10;;;;;;;;;;4960108;28;20038;-80
2022/11/15 00:33:03;;;;;;;4.47;3.47;;;;;;;;;;4943959;28;20065;-81
2022/11/15 00:35:33;;;;;;;4.32;3.15;;;;;;;;;;4928166;28;20507;-80
2022/11/15 00:37:59;;;;;;;3.70;3.13;;;;;;;;;;4944288;28;20080;-81
2022/11/15 00:40:24;;;;;;;4.78;3.47;;;;;;;;;;4960116;28;20509;-81
2022/11/15 00:42:50;;;;;;;4.80;3.22;;;;;;;;;;4943907;28;20493;-80
2022/11/15 00:45:15;;;;;;;4.15;2.88;;;;;;;;;;4943486;28;20042;-80
2022/11/15 00:47:44;;;;;;;4.07;3.17;;;;;;;;;;4959774;28;20397;-80
2022/11/15 00:50:10;;;;;;;3.65;3.03;;;;;;;;;;4943921;28;20034;-81
2022/11/15 00:52:35;;;;;;;4.80;3.33;;;;;;;;;;4927701;28;20125;-80
2022/11/15 00:55:01;;;;;;;4.35;3.10;;;;;;;;;;4943549;28;20066;-81
2022/11/15 00:57:26;;;;;;;4.20;3.20;;;;;;;;;;4959295;28;20181;-81
2022/11/15 00:59:52;;;;;;;4.35;3.03;;;;;;;;;;4952699;28;20041;-80
2022/11/15 01:02:17;;;;;;;4.63;2.83;;;;;;;;;;4962547;28;20420;-80
2022/11/15 01:04:43;;;;;;;4.10;3.22;;;;;;;;;;4947827;28;20053;-80
2022/11/15 01:07:08;;;;;;;3.72;2.55;;;;;;;;;;4940030;28;20445;-80
2022/11/15 01:09:34;;;;;;;4.28;2.63;;;;;;;;;;4956196;28;20097;-81
2022/11/15 01:11:59;;;;;;;3.58;2.65;;;;;;;;;;4955797;28;20421;-80
2022/11/15 01:14:24;;;;;;;4.38;2.80;;;;;;;;;;4942005;28;20430;-81
2022/11/15 01:16:50;;;;;;;3.47;2.67;;;;;;;;;;4943280;28;20031;-80
2022/11/15 01:19:15;;;;;;;4.60;3.17;;;;;;;;;;4959240;28;20513;-80
2022/11/15 01:21:41;;;;;;;3.97;2.67;;;;;;;;;;4958979;28;20405;-80
2022/11/15 01:24:07;;;;;;;4.03;2.78;;;;;;;;;;4927518;28;20416;-81
2022/11/15 01:26:33;;;;;;;4.53;2.70;;;;;;;;;;4943010;28;20034;-81
2022/11/15 01:28:58;;;;;;;3.13;2.47;;;;;;;;;;4943230;28;20050;-80
2022/11/15 01:31:24;;;;;;;4.50;2.97;;;;;;;;;;4958970;28;20046;-80
2022/11/15 01:33:49;;;;;;;3.53;2.47;;;;;;;;;;4942894;28;20417;-81
2022/11/15 01:36:21;;;;;;;3.40;2.88;;;;;;;;;;4942785;28;20413;-81
2022/11/15 01:38:47;;;;;;;3.60;2.38;;;;;;;;;;4959652;28;20046;-81
2022/11/15 01:41:22;;;;;;;4.18;2.80;;;;;;;;;;4957778;28;20040;-80
2022/11/15 01:43:49;;;;;;;4.18;2.97;;;;;;;;;;4943604;28;20050;-81
2022/11/15 01:46:24;;;;;;;3.65;2.55;;;;;;;;;;4943039;28;20038;-81
2022/11/15 01:48:50;;;;;;;3.90;2.95;;;;;;;;;;4959095;28;20042;-81
2022/11/15 01:51:16;;;;;;;3.28;2.40;;;;;;;;;;4943015;28;20045;-81
2022/11/15 01:53:43;;;;;;;3.08;2.40;;;;;;;;;;4958572;28;20030;-81
2022/11/15 01:56:15;;;;;;;3.63;2.30;;;;;;;;;;4942887;28;20038;-81
2022/11/15 01:58:40;;;;;;;;;;;;;;;;;;4943201;28;20429;-80
2022/11/15 02:01:05;;;;;;;3.88;2.63;;;;;;;;;;4961852;28;19913;-81
2022/11/15 02:03:35;;;;;;;3.55;2.25;;;;;;;;;;4994023;28;20041;-80
2022/11/15 02:06:00;;;;;;;3.28;2.50;;;;;;;;;;4962215;28;20046;-81
2022/11/15 02:08:26;;;;;;;3.80;2.65;;;;;;;;;;4993993;28;20060;-80
2022/11/15 02:10:51;;;;;;;3.97;2.65;;;;;;;;;;4977524;28;20097;-81
2022/11/15 02:13:17;;;;;;;3.28;2.38;;;;;;;;;;4977725;28;20404;-80
2022/11/15 02:16:06;;;;;;;3.70;2.80;;;;;;;;;;4965303;28;20065;-80
2022/11/15 02:18:37;;;;;;;3.58;2.58;;;;;;;;;;4977297;28;20042;-81
2022/11/15 02:21:23;;;;;;;3.50;2.47;;;;;;;;;;4926765;28;20504;-81
2022/11/15 02:24:11;;;;;;;5.68;2.67;;;;;;;;;;4943828;28;20061;-81
2022/11/15 02:26:43;;;;;;;3.15;2.17;;;;;;;;;;4957909;28;20413;-80
2022/11/15 02:29:28;;;;;;;3.92;2.30;;;;;;;;;;4974531;28;20042;-81
2022/11/15 02:32:18;;;;;;;3.45;2.40;;;;;;;;;;4957035;28;20038;-80
2022/11/15 02:35:02;;;;;;;3.30;2.38;;;;;;;;;;4942649;28;20038;-81
2022/11/15 02:37:44;;;;;;;3.20;2.42;;;;;;;;;;4974438;28;20048;-80
2022/11/15 02:40:16;;;;;;;;;;;;;;;;;;4939493;28;20045;-81
2022/11/15 02:45:35;;;;;;;3.72;2.42;;;;;;;;;;4957584;28;20501;-80
2022/11/15 02:48:00;;;;;;;3.30;2.38;;;;;;;;;;4939409;28;20038;-80
2022/11/15 02:50:28;;;;;;;2.67;1.77;;;;;;;;;;4923215;28;20480;-81
2022/11/15 02:52:53;;;;;;;2.85;2.00;;;;;;;;;;4910891;28;20039;-81
2022/11/15 02:55:33;;;;;;;2.90;2.00;;;;;;;;;;4942130;28;20046;-81
2022/11/15 02:58:32;;;;;;;3.10;1.77;;;;;;;;;;4942756;28;20039;-81
2022/11/15 03:01:10;;;;;;;3.00;2.10;;;;;;;;;;4965725;28;20472;-81
2022/11/15 03:03:57;;;;;;;3.55;1.92;;;;;;;;;;5014524;28;20175;-81
2022/11/15 03:06:32;;;;;;;3.17;2.30;;;;;;;;;;5014761;28;20037;-81
2022/11/15 03:09:28;;;;;;;2.97;1.88;;;;;;;;;;4981018;28;20042;-81
2022/11/15 03:12:23;;;;;;;3.30;2.00;;;;;;;;;;4979038;28;20412;-81
2022/11/15 03:15:01;;;;;;;4.07;2.08;;;;;;;;;;4977962;28;20405;-81
2022/11/15 03:17:29;;;;;;;2.65;1.83;;;;;;;;;;4942122;28;20110;-80
2022/11/15 03:19:58;;;;;;;3.33;2.28;;;;;;;;;;4910854;28;20034;-81
2022/11/15 03:22:25;;;;;;;3.50;2.40;;;;;;;;;;4927044;28;20117;-81
2022/11/15 03:24:54;;;;;;;3.20;2.33;;;;;;;;;;4926337;28;20053;-81
2022/11/15 03:27:21;;;;;;;3.10;1.90;;;;;;;;;;4926384;28;20074;-81
2022/11/15 03:29:52;;;;;;;2.75;2.15;;;;;;;;;;4926690;28;20098;-82
2022/11/15 03:32:23;;;;;;;3.17;2.05;;;;;;;;;;4926819;28;20066;-80
2022/11/15 03:34:53;;;;;;;3.60;2.13;;;;;;;;;;4910464;28;20074;-80
2022/11/15 03:37:21;;;;;;;3.35;2.03;;;;;;;;;;4941910;28;20114;-81
2022/11/15 03:39:46;;;;;;;2.97;1.85;;;;;;;;;;4957064;28;20560;-80
2022/11/15 03:42:52;;;;;;;2.70;2.00;;;;;;;;;;4959935;28;20046;-80
2022/11/15 03:45:28;;;;;;;3.20;1.98;;;;;;;;;;4963895;28;20042;-81
2022/11/15 03:48:12;;;;;;;3.65;2.28;;;;;;;;;;4973328;28;20523;-81
2022/11/15 03:50:38;;;;;;;2.90;1.88;;;;;;;;;;4963865;28;20411;-81
2022/11/15 03:53:03;;;;;;;2.75;1.90;;;;;;;;;;4963603;28;20022;-81
2022/11/15 03:55:31;;;;;;;3.13;2.25;;;;;;;;;;4963911;28;20133;-81
2022/11/15 03:57:58;;;;;;;3.25;2.03;;;;;;;;;;4948029;28;20042;-81
2022/11/15 04:00:23;;;;;;;2.25;1.50;;;;;;;;;;4964474;28;20030;-80
2022/11/15 04:02:49;;;;;;;3.67;2.00;;;;;;;;;;4963237;28;20207;-81
2022/11/15 04:05:14;;;;;;;2.70;1.60;;;;;;;;;;4978799;28;20632;-80
2022/11/15 04:07:40;;;;;;;2.75;2.03;;;;;;;;;;4979602;28;20044;-81
2022/11/15 04:10:06;;;;;;;3.17;1.92;;;;;;;;;;4979913;28;20042;-81
2022/11/15 04:12:32;;;;;;;4.38;1.80;;;;;;;;;;4979681;28;20088;-81
2022/11/15 04:15:07;;;;;;;2.17;1.48;;;;;;;;;;4989565;28;20049;-81
2022/11/15 04:17:46;;;;;;;3.17;1.77;;;;;;;;;;4957276;28;20101;-81
2022/11/15 04:25:51;;;;;;;2.85;1.73;;;;;;;;;;4943438;28;20046;-82
2022/11/15 04:28:16;;;;;;;2.75;1.85;;;;;;;;;;4925362;28;20046;-81
2022/11/15 04:30:42;;;;;;;2.50;1.50;;;;;;;;;;4925284;28;20046;-81
2022/11/15 04:33:07;;;;;;;3.28;1.77;;;;;;;;;;4940533;28;20037;-82
2022/11/15 04:35:33;;;;;;;2.10;1.50;;;;;;;;;;4923181;28;20485;-81
2022/11/15 04:37:59;;;;;;;2.70;1.80;;;;;;;;;;4908261;28;20405;-82
2022/11/15 04:40:24;;;;;;;2.80;1.90;;;;;;;;;;4938403;28;20055;-81
2022/11/15 04:42:50;;;;;;;2.75;1.70;;;;;;;;;;4943319;28;20046;-81
2022/11/15 04:45:15;;;;;;;2.50;1.70;;;;;;;;;;4959467;28;20413;-81
2022/11/15 04:47:43;;;;;;;3.05;1.80;;;;;;;;;;4943994;28;20077;-81
2022/11/15 04:50:12;;;;;;;2.58;1.52;;;;;;;;;;4927668;28;20412;-81
2022/11/15 04:52:37;;;;;;;2.30;1.55;;;;;;;;;;4960076;28;20038;-81
2022/11/15 04:55:03;;;;;;;3.33;1.60;;;;;;;;;;4959415;28;20423;-82
2022/11/15 04:57:29;;;;;;;1.80;1.42;;;;;;;;;;4959635;28;20038;-81
2022/11/15 04:59:54;;;;;;;1.95;1.40;;;;;;;;;;4953716;28;20049;-82
2022/11/15 05:02:20;;;;;;;2.00;1.45;;;;;;;;;;4963013;28;20399;-82
2022/11/15 05:04:45;;;;;;;2.33;1.60;;;;;;;;;;4978700;28;20038;-81
2022/11/15 05:07:11;;;;;;;2.25;1.40;;;;;;;;;;4978748;28;20042;-81
2022/11/15 05:09:36;;;;;;;1.80;1.25;;;;;;;;;;4978581;28;20460;-81
2022/11/15 05:12:02;;;;;;;2.03;1.45;;;;;;;;;;4978611;28;20412;-82
2022/11/15 05:14:27;;;;;;;2.22;1.40;;;;;;;;;;4959192;28;20061;-82
2022/11/15 05:16:52;;;;;;;2.28;1.52;;;;;;;;;;4959016;28;20605;-83
2022/11/15 05:19:18;;;;;;;2.17;1.23;;;;;;;;;;4958912;28;20491;-83
2022/11/15 05:21:44;;;;;;;2.03;1.45;;;;;;;;;;4943829;28;20408;-83
2022/11/15 05:24:12;;;;;;;2.10;1.40;;;;;;;;;;4943339;28;20044;-83
2022/11/15 05:26:38;;;;;;;2.47;1.20;;;;;;;;;;4943111;28;20050;-82
2022/11/15 05:29:03;;;;;;;2.80;1.55;;;;;;;;;;4943605;28;20400;-83
2022/11/15 05:31:29;;;;;;;2.30;1.55;;;;;;;;;;4942896;28;20114;-82
2022/11/15 05:33:55;;;;;;;2.70;1.55;;;;;;;;;;4927104;28;20030;-82
2022/11/15 05:36:37;;;;;;;2.40;1.35;;;;;;;;;;4942916;28;20042;-82
2022/11/15 05:39:04;;;;;;;2.08;1.35;;;;;;;;;;4956136;28;20039;-82
2022/11/15 05:41:44;;;;;;;1.73;1.08;;;;;;;;;;4907950;28;20057;-83
2022/11/15 05:44:10;;;;;;;2.13;1.33;;;;;;;;;;4923948;28;20037;-83
2022/11/15 05:46:35;;;;;;;2.55;1.40;;;;;;;;;;4939934;28;20045;-83
2022/11/15 05:49:01;;;;;;;1.83;1.10;;;;;;;;;;4939472;28;20046;-83
2022/11/15 05:51:26;;;;;;;1.90;1.20;;;;;;;;;;4923703;28;20066;-83
2022/11/15 05:53:53;;;;;;;2.50;1.20;;;;;;;;;;4955532;28;20035;-82
2022/11/15 05:56:18;;;;;;;2.05;1.58;;;;;;;;;;4939396;28;20034;-82
2022/11/15 05:58:44;;;;;;;2.38;1.63;;;;;;;;;;4940655;28;20050;-83
2022/11/15 06:01:09;;;;;;;2.33;1.40;;;;;;;;;;4977819;28;20029;-82
2022/11/15 06:03:35;;;;;;;1.80;1.00;;;;;;;;;;4977587;28;20046;-82
2022/11/15 06:06:00;;;;;;;1.83;1.35;;;;;;;;;;4993813;28;20034;-82
2022/11/15 06:08:26;;;;;;;1.67;1.08;;;;;;;;;;4978660;28;20412;-82
2022/11/15 06:10:52;;;;;;;2.15;1.20;;;;;;;;;;4961064;28;20030;-82
2022/11/15 06:13:17;;;;;;;1.75;1.20;;;;;;;;;;4976489;28;20061;-83
2022/11/15 06:15:43;;;;;;;2.05;1.10;;;;;;;;;;4948841;28;20105;-83
2022/11/15 06:18:09;;;;;;;1.52;1.10;;;;;;;;;;4941935;28;20052;-84
2022/11/15 06:20:34;;;;;;;2.15;1.02;;;;;;;;;;4942267;28;20050;-85
2022/11/15 06:23:01;;;;;;;2.25;1.10;;;;;;;;;;4942010;28;20389;-84
2022/11/15 06:25:27;;;;;;;1.75;1.00;;;;;;;;;;4945110;28;20046;-83
2022/11/15 06:27:53;;;;;;;1.67;1.10;;;;;;;;;;4948905;28;20095;-84
2022/11/15 06:30:19;;;;;;;1.85;1.33;;;;;;;;;;4949540;28;20034;-83
2022/11/15 06:32:45;;;;;;;2.58;1.20;;;;;;;;;;4964753;28;20420;-82
2022/11/15 06:35:11;;;;;;;1.25;0.90;;;;;;;;;;4949651;28;20116;-85
2022/11/15 06:37:39;;;;;;;1.92;1.10;;;;;;;;;;4966490;28;20033;-87
2022/11/15 06:40:05;;;;;;;1.40;1.08;;;;;;;;;;4970616;28;20034;-86
2022/11/15 06:42:32;;;;;;;1.95;1.10;;;;;;;;;;4931512;28;20034;-87
2022/11/15 06:44:57;;;;;;;2.13;0.80;;;;;;;;;;4930922;28;20449;-86
2022/11/15 06:47:23;;;;;;;1.33;0.70;;;;;;;;;;4956432;28;20084;-85
2022/11/15 06:49:48;;;;;;;1.80;1.23;;;;;;;;;;4951551;28;20038;-85
2022/11/15 06:52:14;;;;;;;2.85;1.00;;;;;;;;;;4950614;28;20082;-84
2022/11/15 06:54:40;;;;;;;3.53;1.25;;;;;;;;;;4940901;28;20034;-85
2022/11/15 06:57:05;;;;;;;2.55;1.20;;;;;;;;;;4942674;28;20050;-83
2022/11/15 06:59:31;;;;;;;2.75;1.75;;;;;;;;;;4940498;28;20385;-85
2022/11/15 07:01:56;;;;;;;7.22;2.03;;;;;;;;;;4939145;28;20465;-81
2022/11/15 07:04:22;;;;;;;3.45;1.75;;;;;;;;;;4952103;28;20037;-82
2022/11/15 07:06:48;;;;;;;7.30;2.20;;;;;;;;;;4960151;28;20037;-82
2022/11/15 07:09:13;;;;;;;9.05;2.40;;;;;;;;;;4946237;28;20033;-81
2022/11/15 07:11:39;;;;;;;9.40;2.20;;;;;;;;;;4926857;28;20390;-82
2022/11/15 07:14:04;;;;;;;20.92;11.88;;;;;;;;;;4911461;28;20038;-81
2022/11/15 07:16:30;;;;;;;21.73;14.35;;;;;;;;;;4946084;28;20084;-81
2022/11/15 07:18:55;;;;;;;25.15;13.13;;;;;;;;;;4928673;28;20408;-81
2022/11/15 07:21:20;;;;;;;21.83;12.48;;;;;;;;;;4944952;28;20046;-82
2022/11/15 07:23:46;;;;;;;17.90;11.52;;;;;;;;;;4951157;28;20074;-81
2022/11/15 07:26:11;;;;;;;19.63;11.07;;;;;;;;;;4925665;28;20042;-81
2022/11/15 07:28:37;;;;;;;18.58;12.00;;;;;;;;;;4956236;28;20409;-82
2022/11/15 07:31:06;;;;;;;17.85;11.00;;;;;;;;;;4942061;28;20401;-82
2022/11/15 07:33:32;;;;;;;27.05;12.65;;;;;;;;;;4941755;28;20058;-82
2022/11/15 07:36:04;;;;;;;15.70;10.68;;;;;;;;;;4957920;28;20509;-81
2022/11/15 07:38:29;;;;;;;18.98;11.30;;;;;;;;;;4941816;28;20129;-81
2022/11/15 07:40:59;;;;;;;16.70;9.80;;;;;;;;;;4939902;28;20041;-82
2022/11/15 07:43:24;;;;;;;19.67;11.07;;;;;;;;;;4926390;28;20065;-83
2022/11/15 07:45:49;;;;;;;15.23;8.98;;;;;;;;;;4925535;28;20497;-83
2022/11/15 07:48:15;;;;;;;18.50;9.57;;;;;;;;;;4926022;28;20050;-82
2022/11/15 07:50:41;;;;;;;16.63;9.23;;;;;;;;;;4926016;28;20031;-84
2022/11/15 07:53:08;;;;;;;15.15;9.15;;;;;;;;;;4928915;28;20041;-84
2022/11/15 07:55:34;;;;;;;16.45;9.30;;;;;;;;;;4945450;28;20049;-84
2022/11/15 07:58:03;;;;;;;14.00;8.05;;;;;;;;;;4929117;28;20129;-84
2022/11/15 08:00:29;;;;;;;15.60;9.05;;;;;;;;;;4958335;28;20030;-84
2022/11/15 08:03:21;;;;;;;12.63;7.95;;;;;;;;;;4944407;28;20034;-83
2022/11/15 08:05:50;;;;;;;17.88;7.97;;;;;;;;;;4958065;28;20112;-84
2022/11/15 08:08:15;;;;;;;11.10;7.00;;;;;;;;;;4928126;28;20069;-84
2022/11/15 08:10:41;;;;;;;16.40;6.88;;;;;;;;;;4928103;28;20082;-84
2022/11/15 08:13:08;;;;;;;12.80;6.93;;;;;;;;;;4944276;28;20122;-84
2022/11/15 08:15:33;;;;;;;14.98;7.93;;;;;;;;;;4944730;28;20031;-85
2022/11/15 08:18:08;;;;;;;11.68;6.28;;;;;;;;;;4928798;28;20034;-84
2022/11/15 08:20:34;;;;;;;9.15;6.05;;;;;;;;;;4960777;28;20065;-84
2022/11/15 08:23:01;;;;;;;13.05;5.93;;;;;;;;;;4944646;28;20122;-85
2022/11/15 08:25:27;;;;;;;9.18;6.28;;;;;;;;;;4944368;28;20113;-85
2022/11/15 08:27:53;;;;;;;11.18;7.50;;;;;;;;;;4928476;28;20069;-85
2022/11/15 08:30:19;;;;;;;13.35;6.65;;;;;;;;;;4944319;28;20030;-84
2022/11/15 08:32:45;;;;;;;8.80;6.75;;;;;;;;;;4928256;28;20046;-84
2022/11/15 08:35:10;;;;;;;10.70;6.85;;;;;;;;;;4959966;28;20034;-84
2022/11/15 08:37:35;;;;;;;10.70;6.93;;;;;;;;;;4944174;28;20034;-84
2022/11/15 08:40:01;;;;;;;9.25;6.07;;;;;;;;;;4943998;28;20034;-84
2022/11/15 08:42:26;;;;;;;8.05;6.10;;;;;;;;;;4928194;28;20125;-84
2022/11/15 08:44:52;;;;;;;10.00;6.00;;;;;;;;;;4944385;28;20042;-84
2022/11/15 08:47:17;;;;;;;13.05;7.28;;;;;;;;;;4928308;28;20042;-84
2022/11/15 08:49:43;;;;;;;9.60;6.00;;;;;;;;;;4959814;28;20034;-84
2022/11/15 08:52:08;;;;;;;8.98;5.63;;;;;;;;;;4928170;28;20137;-84
2022/11/15 08:54:33;;;;;;;9.90;6.00;;;;;;;;;;4959590;28;20109;-84
2022/11/15 08:56:59;;;;;;;9.65;5.70;;;;;;;;;;4959549;28;20057;-84
2022/11/15 08:59:25;;;;;;;8.90;5.65;;;;;;;;;;4950068;28;20312;-85
2022/11/15 09:01:51;;;;;;;7.35;5.70;;;;;;;;;;4967371;28;20461;-84
2022/11/15 09:04:16;;;;;;;7.18;5.50;;;;;;;;;;4943259;28;20044;-84
2022/11/15 09:06:42;;;;;;;8.88;5.10;;;;;;;;;;4959677;28;20030;-84
2022/11/15 09:09:07;;;;;;;8.38;5.13;;;;;;;;;;4943402;28;20053;-84
2022/11/15 09:11:32;;;;;;;7.85;5.03;;;;;;;;;;4959163;28;20065;-84
2022/11/15 09:13:58;;;;;;;7.82;4.68;;;;;;;;;;4943465;28;20038;-83
2022/11/15 09:16:23;;;;;;;6.63;4.43;;;;;;;;;;4927511;28;20039;-84
2022/11/15 09:18:50;;;;;;;8.40;5.50;;;;;;;;;;4959249;28;20042;-84
2022/11/15 09:21:15;;;;;;;7.82;4.55;;;;;;;;;;4959415;28;20038;-83
2022/11/15 09:23:41;;;;;;;5.53;3.90;;;;;;;;;;4943625;28;20456;-83
2022/11/15 09:26:06;;;;;;;6.82;4.13;;;;;;;;;;4926921;28;20405;-84
2022/11/15 09:28:32;;;;;;;6.57;4.30;;;;;;;;;;4959040;28;20041;-84
2022/11/15 09:30:58;;;;;;;5.55;3.80;;;;;;;;;;4927560;28;20439;-83
2022/11/15 09:33:24;;;;;;;6.13;3.65;;;;;;;;;;4958593;28;20034;-83
2022/11/15 09:35:49;;;;;;;6.60;4.10;;;;;;;;;;4958979;28;20046;-83
2022/11/15 09:38:15;;;;;;;6.28;3.83;;;;;;;;;;4927497;28;20107;-84
2022/11/15 09:40:40;;;;;;;5.25;3.80;;;;;;;;;;4926856;28;20099;-83
2022/11/15 09:43:24;;;;;;;9.57;3.80;;;;;;;;;;4942842;28;20563;-83
2022/11/15 09:46:02;;;;;;;6.28;3.33;;;;;;;;;;4958918;28;20060;-84
2022/11/15 09:48:50;;;;;;;6.20;3.78;;;;;;;;;;4944000;28;20069;-83
2022/11/15 09:51:27;;;;;;;6.22;2.90;;;;;;;;;;4942716;28;20397;-83
2022/11/15 09:54:13;;;;;;;5.47;3.38;;;;;;;;;;4943238;28;20030;-84
2022/11/15 09:56:41;;;;;;;6.50;3.33;;;;;;;;;;4957766;28;20505;-84
2022/11/15 09:59:37;;;;;;;9.68;3.20;;;;;;;;;;4962568;28;20113;-84
2022/11/15 10:02:36;;;;;;;8.13;3.65;;;;;;;;;;4964545;28;20023;-84
2022/11/15 10:05:02;;;;;;;5.78;3.30;;;;;;;;;;4992250;28;20034;-83
2022/11/15 10:07:33;;;;;;;5.90;3.13;;;;;;;;;;4942831;28;20053;-84
2022/11/15 10:10:04;;;;;;;5.55;2.60;;;;;;;;;;4958754;28;20112;-84
2022/11/15 10:12:30;;;;;;;6.93;2.97;;;;;;;;;;4958339;28;20042;-84
2022/11/15 10:15:02;;;;;;;7.57;2.75;;;;;;;;;;4939046;28;20042;-84
2022/11/15 10:18:03;;;;;;;6.80;2.80;;;;;;;;;;4955811;28;20038;-84
2022/11/15 10:20:39;;;;;;;6.40;2.63;;;;;;;;;;4958716;28;20034;-84
2022/11/15 10:23:06;;;;;;;4.88;2.40;;;;;;;;;;4943282;28;20517;-85
2022/11/15 10:25:32;;;;;;;4.10;2.67;;;;;;;;;;4958169;28;20046;-84
2022/11/15 10:28:14;;;;;;;7.85;2.97;;;;;;;;;;4926729;28;20125;-84
2022/11/15 10:30:42;;;;;;;7.20;2.67;;;;;;;;;;4958693;28;20449;-84
2022/11/15 10:33:17;;;;;;;6.88;2.92;;;;;;;;;;4926433;28;20034;-84
2022/11/15 10:35:42;;;;;;;8.00;2.58;;;;;;;;;;4958449;28;20045;-84
2022/11/15 10:38:11;;;;;;;8.85;2.88;;;;;;;;;;4942301;28;20035;-84
2022/11/15 10:40:38;;;;;;;6.70;2.40;;;;;;;;;;4959061;28;20049;-84
2022/11/15 10:43:10;;;;;;;7.50;2.03;;;;;;;;;;4942479;28;20187;-84
2022/11/15 10:45:36;;;;;;;5.15;2.22;;;;;;;;;;4959060;28;20034;-84
2022/11/15 10:48:14;;;;;;;6.00;2.33;;;;;;;;;;4958514;28;20031;-84
2022/11/15 10:50:43;;;;;;;8.13;2.20;;;;;;;;;;4958367;28;20034;-84
2022/11/15 10:53:30;;;;;;;7.55;2.10;;;;;;;;;;4958126;28;20547;-84
2022/11/15 10:56:01;;;;;;;7.43;2.85;;;;;;;;;;4942767;28;20046;-84
2022/11/15 10:58:50;;;;;;;5.90;2.10;;;;;;;;;;4958417;28;20068;-84
2022/11/15 11:01:22;;;;;;;6.40;2.35;;;;;;;;;;4929937;28;20572;-84
2022/11/15 11:04:07;;;;;;;8.88;2.72;;;;;;;;;;4925877;28;20026;-84
2022/11/15 11:06:53;;;;;;;5.03;1.95;;;;;;;;;;4926699;28;20042;-83
2022/11/15 11:09:32;;;;;;;6.43;2.42;;;;;;;;;;4957201;28;20093;-84
2022/11/15 11:11:58;;;;;;;7.85;2.00;;;;;;;;;;4927867;28;20042;-84
2022/11/15 11:14:26;;;;;;;8.18;2.30;;;;;;;;;;4945625;28;20030;-84
2022/11/15 11:17:01;;;;;;;7.25;1.98;;;;;;;;;;4961669;28;20038;-84
2022/11/15 11:19:50;;;;;;;8.32;2.00;;;;;;;;;;4961177;28;20268;-84
2022/11/15 11:22:38;;;;;;;6.38;2.55;;;;;;;;;;4947499;28;20050;-84
2022/11/15 11:25:28;;;;;;;4.50;1.73;;;;;;;;;;4977494;28;20509;-84
2022/11/15 11:28:18;;;;;;;5.38;2.10;;;;;;;;;;4961164;28;20564;-84
2022/11/15 11:31:05;;;;;;;8.50;2.60;;;;;;;;;;4977678;28;20120;-84
2022/11/15 11:33:49;;;;;;;8.20;3.40;;;;;;;;;;4946343;28;20132;-84
2022/11/15 11:36:25;;;;;;;8.27;3.55;;;;;;;;;;4961279;28;20050;-84
2022/11/15 11:38:57;;;;;;;7.63;3.05;;;;;;;;;;4945083;28;20088;-84
2022/11/15 11:41:41;;;;;;;7.55;3.05;;;;;;;;;;4961006;28;20555;-84
2022/11/15 11:44:24;;;;;;;8.07;3.17;;;;;;;;;;4977078;28;20034;-84
2022/11/15 11:47:06;;;;;;;8.98;3.25;;;;;;;;;;4944896;28;20035;-84
2022/11/15 11:49:41;;;;;;;;;;;;;;;;;;4930876;28;20041;-84
2022/11/15 11:52:26;;;;;;;5.90;2.42;;;;;;;;;;4977093;28;19921;-84
2022/11/15 11:55:05;;;;;;;7.07;3.00;;;;;;;;;;4957133;28;20034;-84
2022/11/15 11:58:00;;;;;;;5.35;2.33;;;;;;;;;;4910409;28;20413;-84
2022/11/15 12:00:28;;;;;;;5.18;2.20;;;;;;;;;;4971819;28;20030;-85
2022/11/15 12:02:59;;;;;;;6.03;2.80;;;;;;;;;;4941851;28;20105;-84
2022/11/15 12:05:37;;;;;;;6.47;2.47;;;;;;;;;;4956960;28;20035;-84
2022/11/15 12:08:24;;;;;;;8.88;2.13;;;;;;;;;;4942530;28;20035;-84
2022/11/15 12:11:03;;;;;;;5.15;1.90;;;;;;;;;;4957598;28;20086;-84
2022/11/15 12:13:29;;;;;;;4.90;2.17;;;;;;;;;;4925302;28;20038;-84
2022/11/15 12:16:09;;;;;;;4.88;1.60;;;;;;;;;;4954788;28;20054;-84
2022/11/15 12:18:35;;;;;;;5.07;1.90;;;;;;;;;;4976711;28;20042;-84
2022/11/15 12:21:22;;;;;;;5.68;2.28;;;;;;;;;;4960367;28;20045;-84
2022/11/15 12:23:50;;;;;;;5.90;2.13;;;;;;;;;;4951866;28;20046;-84
2022/11/15 12:26:20;;;;;;;6.35;1.80;;;;;;;;;;4960412;28;20587;-84
2022/11/15 12:28:59;;;;;;;4.45;1.85;;;;;;;;;;4944664;28;20046;-85
2022/11/15 12:31:34;;;;;;;5.35;2.03;;;;;;;;;;4929046;28;20038;-85
2022/11/15 12:34:01;;;;;;;6.25;1.85;;;;;;;;;;4975840;28;20125;-84
2022/11/15 12:36:35;;;;;;;4.75;1.77;;;;;;;;;;4944676;28;20030;-85
2022/11/15 12:39:10;;;;;;;6.35;2.33;;;;;;;;;;4976380;28;20054;-84
2022/11/15 12:41:37;;;;;;;4.95;1.92;;;;;;;;;;4961517;28;20038;-84
2022/11/15 12:44:03;;;;;;;5.40;1.75;;;;;;;;;;4960179;28;20049;-84
2022/11/15 12:46:29;;;;;;;3.78;1.83;;;;;;;;;;4960248;28;20105;-84
2022/11/15 12:49:02;;;;;;;4.90;2.17;;;;;;;;;;4959681;28;20034;-84
2022/11/15 12:51:42;;;;;;;4.85;1.90;;;;;;;;;;4945098;28;20031;-85
2022/11/15 12:54:23;;;;;;;3.70;1.40;;;;;;;;;;4956390;28;20047;-85
2022/11/15 12:57:04;;;;;;;7.47;1.73;;;;;;;;;;4956782;28;20039;-86
2022/11/15 12:59:55;;;;;;;9.05;1.90;;;;;;;;;;4969802;28;20042;-85
2022/11/15 13:02:24;;;;;;;5.35;1.42;;;;;;;;;;4963761;28;20031;-85
2022/11/15 13:04:50;;;;;;;6.43;1.67;;;;;;;;;;4943563;28;20045;-85
2022/11/15 13:07:34;;;;;;;6.28;2.03;;;;;;;;;;4940210;28;20042;-85
2022/11/15 13:09:59;;;;;;;5.72;1.70;;;;;;;;;;4956430;28;20046;-85
2022/11/15 13:12:28;;;;;;;5.95;1.50;;;;;;;;;;4924804;28;20121;-85
2022/11/15 13:14:57;;;;;;;7.22;2.03;;;;;;;;;;4958663;28;20085;-85
2022/11/15 13:17:27;;;;;;;6.10;1.75;;;;;;;;;;4920193;28;20042;-85
2022/11/15 13:20:07;;;;;;;5.63;1.25;;;;;;;;;;4940039;28;20581;-86
2022/11/15 13:22:51;;;;;;;8.73;1.50;;;;;;;;;;4972144;28;20046;-85
2022/11/15 13:25:35;;;;;;;4.55;1.38;;;;;;;;;;4939906;28;20531;-85
2022/11/15 13:28:21;;;;;;;5.53;1.60;;;;;;;;;;4956512;28;20109;-85
2022/11/15 13:30:47;;;;;;;4.32;1.67;;;;;;;;;;4939003;28;20043;-85
2022/11/15 13:33:25;;;;;;;6.57;1.65;;;;;;;;;;4939588;28;20041;-85
2022/11/15 13:35:55;;;;;;;7.15;1.70;;;;;;;;;;4954821;28;20425;-84
2022/11/15 13:38:23;;;;;;;5.72;1.55;;;;;;;;;;4924042;28;20041;-85
2022/11/15 13:40:49;;;;;;;5.97;1.55;;;;;;;;;;4939944;28;20405;-85
2022/11/15 13:43:35;;;;;;;6.03;1.52;;;;;;;;;;4939747;28;20046;-85
2022/11/15 13:46:27;;;;;;;8.10;2.00;;;;;;;;;;4955569;28;20050;-85
2022/11/15 13:49:02;;;;;;;;;;;;;;;;;;4940431;28;20038;-85
2022/11/15 13:51:37;;;;;;;6.38;1.60;;;;;;;;;;4939939;28;19914;-85
2022/11/15 13:54:22;;;;;;;8.82;1.63;;;;;;;;;;4963346;28;20045;-85
2022/11/15 13:56:51;;;;;;;3.47;1.17;;;;;;;;;;4955629;28;20030;-86
2022/11/15 14:16:37;;;;;;;4.30;1.50;;;;;;;;;;5150150;27;20341;-86
2022/11/15 14:19:03;;;;;;;4.43;1.63;;;;;;;;;;5115462;27;20022;-85
2022/11/15 14:21:28;;;;;;;7.65;1.95;;;;;;;;;;5098414;27;20035;-85
2022/11/15 14:24:16;;;;;;;9.27;1.70;;;;;;;;;;5081391;27;20475;-85
2022/11/15 14:26:42;;;;;;;5.63;1.42;;;;;;;;;;5115216;27;20054;-85
2022/11/15 14:29:27;;;;;;;5.32;1.33;;;;;;;;;;5098138;27;20569;-85
2022/11/15 14:32:12;;;;;;;5.90;1.20;;;;;;;;;;5097276;27;20027;-85
2022/11/15 14:34:38;;;;;;;7.05;1.50;;;;;;;;;;5116283;27;20465;-84
2022/11/15 14:37:03;;;;;;;7.70;1.60;;;;;;;;;;5114777;27;20057;-85
2022/11/15 14:39:28;;;;;;;7.65;1.67;;;;;;;;;;5114630;27;20050;-85
2022/11/15 14:41:54;;;;;;;7.65;1.77;;;;;;;;;;5114375;27;20031;-85
2022/11/15 14:44:21;;;;;;;7.28;2.20;;;;;;;;;;5114689;27;20043;-85
2022/11/15 14:46:47;;;;;;;9.55;1.80;;;;;;;;;;5115094;27;20101;-84
2022/11/15 14:49:14;;;;;;;12.23;1.90;;;;;;;;;;5097873;27;20034;-85
2022/11/15 14:51:39;;;;;;;8.00;1.98;;;;;;;;;;5114765;27;20046;-85
2022/11/15 14:54:05;;;;;;;12.07;1.70;;;;;;;;;;5099238;28;20059;-85
2022/11/15 14:56:30;;;;;;;6.38;1.95;;;;;;;;;;5073440;28;20066;-85
2022/11/15 14:58:55;;;;;;;9.98;1.67;;;;;;;;;;5075503;28;20040;-85
2022/11/15 15:01:25;;;;;;;9.55;2.22;;;;;;;;;;5076866;28;20114;-85
2022/11/15 15:03:51;;;;;;;10.00;2.85;;;;;;;;;;5076965;27;20027;-84
2022/11/15 15:06:18;;;;;;;7.72;2.17;;;;;;;;;;5077281;28;20057;-84
2022/11/15 15:08:43;;;;;;;7.13;1.65;;;;;;;;;;5093627;28;20046;-84
2022/11/15 15:11:16;;;;;;;6.78;1.48;;;;;;;;;;5077069;28;20548;-85
2022/11/15 15:13:41;;;;;;;9.13;1.63;;;;;;;;;;5076818;28;20028;-84
2022/11/15 15:16:06;;;;;;;6.53;2.17;;;;;;;;;;5115804;27;20519;-84
2022/11/15 15:18:32;;;;;;;10.52;2.17;;;;;;;;;;5113965;27;20507;-85
2022/11/15 15:21:07;;;;;;;11.52;2.03;;;;;;;;;;5097083;27;20441;-85
2022/11/15 15:23:32;;;;;;;8.82;1.50;;;;;;;;;;5116468;27;20539;-85
2022/11/15 15:25:58;;;;;;;6.50;1.83;;;;;;;;;;5114227;28;20107;-85
2022/11/15 15:28:24;;;;;;;6.70;2.13;;;;;;;;;;5078567;28;20059;-84